createdAt,value
2022-12-18T00:00:29.202Z,35.23
2022-12-18T00:02:59.878Z,35.47
2022-12-18T00:05:28.836Z,35.50
2022-12-18T00:07:57.619Z,33.53
2022-12-18T00:10:26.406Z,35.50
2022-12-18T00:12:55.187Z,34.77
2022-12-18T00:15:23.988Z,33.67
2022-12-18T00:17:52.760Z,33.87
2022-12-18T00:20:26.722Z,31.10
2022-12-18T00:22:56.145Z,30.07
2022-12-18T00:25:25.793Z,30.30
2022-12-18T00:27:54.504Z,29.57
2022-12-18T00:30:23.295Z,30.73
2022-12-18T00:32:52.153Z,29.73
2022-12-18T00:35:22.279Z,28.87
2022-12-18T00:37:51.142Z,29.83
2022-12-18T00:40:20.040Z,30.20
2022-12-18T00:42:56.829Z,30.17
2022-12-18T00:45:30.772Z,31.50
2022-12-18T00:47:59.991Z,30.87
2022-12-18T00:50:30.263Z,32.73
2022-12-18T00:52:58.947Z,31.33
2022-12-18T00:55:28.035Z,31.90
2022-12-18T00:57:56.919Z,33.93
2022-12-18T01:00:26.140Z,34.27
2022-12-18T01:02:55.052Z,33.77
2022-12-18T01:05:23.838Z,34.67
2022-12-18T01:07:55.183Z,35.70
2022-12-18T01:10:24.611Z,33.97
2022-12-18T01:12:53.580Z,35.90
2022-12-18T01:15:22.541Z,33.20
2022-12-18T01:17:51.333Z,31.77
2022-12-18T01:20:20.220Z,31.33
2022-12-18T01:22:48.944Z,29.90
2022-12-18T01:25:19.274Z,30.77
2022-12-18T01:27:48.053Z,29.47
2022-12-18T01:30:17.228Z,30.53
2022-12-18T01:32:46.161Z,30.90
2022-12-18T01:35:14.960Z,30.90
2022-12-18T01:37:43.708Z,30.07
2022-12-18T01:40:12.902Z,30.87
2022-12-18T01:42:43.132Z,29.57
2022-12-18T01:45:27.339Z,29.13
2022-12-18T01:47:58.422Z,29.17
2022-12-18T01:50:31.012Z,28.50
2022-12-18T01:53:04.324Z,27.97
2022-12-18T01:55:39.019Z,26.80
2022-12-18T01:58:09.209Z,26.47
2022-12-18T02:00:38.190Z,27.70
2022-12-18T02:03:07.035Z,26.80
2022-12-18T02:05:47.087Z,27.60
2022-12-18T02:08:22.959Z,27.70
2022-12-18T02:10:59.633Z,26.97
2022-12-18T02:13:38.900Z,27.03
2022-12-18T02:16:16.194Z,25.73
2022-12-18T02:18:50.083Z,25.43
2022-12-18T02:21:33.001Z,25.27
2022-12-18T02:24:20.156Z,24.30
2022-12-18T02:26:53.284Z,23.67
2022-12-18T02:29:29.451Z,23.97
2022-12-18T02:32:04.725Z,24.53
2022-12-18T02:34:36.371Z,24.63
2022-12-18T02:37:09.975Z,26.03
2022-12-18T02:39:42.171Z,25.50
2022-12-18T02:42:14.786Z,25.70
2022-12-18T02:44:47.754Z,27.17
2022-12-18T02:47:22.472Z,26.40
2022-12-18T02:50:00.318Z,26.67
2022-12-18T02:52:39.708Z,32.63
2022-12-18T02:55:21.635Z,33.50
2022-12-18T02:58:00.917Z,30.70
2022-12-18T03:00:40.367Z,29.57
2022-12-18T03:03:14.393Z,29.83
2022-12-18T03:05:48.386Z,27.73
2022-12-18T03:08:21.161Z,27.83
2022-12-18T03:10:56.354Z,28.23
2022-12-18T03:13:35.004Z,27.83
2022-12-18T03:16:07.933Z,26.40
2022-12-18T03:18:41.102Z,25.30
2022-12-18T03:21:12.139Z,27.73
2022-12-18T03:23:45.035Z,26.63
2022-12-18T03:26:18.301Z,26.57
2022-12-18T03:28:53.043Z,25.60
2022-12-18T03:31:24.818Z,25.87
2022-12-18T03:33:56.768Z,25.50
2022-12-18T03:36:35.511Z,26.90
2022-12-18T03:39:04.357Z,27.30
2022-12-18T03:41:45.839Z,27.03
2022-12-18T03:44:40.971Z,25.00
2022-12-18T03:47:15.099Z,24.73
2022-12-18T03:49:58.654Z,23.97
2022-12-18T03:52:32.645Z,24.20
2022-12-18T03:55:04.422Z,24.73
2022-12-18T03:57:35.508Z,24.67
2022-12-18T04:00:10.715Z,24.17
2022-12-18T04:03:12.510Z,25.00
2022-12-18T04:05:48.121Z,24.00
2022-12-18T04:08:19.441Z,23.43
2022-12-18T04:10:55.443Z,23.93
2022-12-18T04:13:25.284Z,22.27
2022-12-18T04:15:55.671Z,22.13
2022-12-18T04:18:25.828Z,22.37
2022-12-18T04:20:54.992Z,23.20
2022-12-18T04:23:24.866Z,23.80
2022-12-18T04:25:55.328Z,22.73
2022-12-18T04:28:38.271Z,23.90
2022-12-18T04:31:08.657Z,23.63
2022-12-18T04:33:38.072Z,22.73
2022-12-18T04:36:08.422Z,23.07
2022-12-18T04:38:37.354Z,23.70
2022-12-18T04:41:10.364Z,23.63
2022-12-18T04:43:39.472Z,23.00
2022-12-18T04:46:11.240Z,23.43
2022-12-18T04:48:40.001Z,24.73
2022-12-18T04:51:09.038Z,22.43
2022-12-18T04:53:38.073Z,23.10
2022-12-18T04:56:09.177Z,23.47
2022-12-18T04:58:37.919Z,24.20
2022-12-18T05:01:06.816Z,23.30
2022-12-18T05:03:38.651Z,23.50
2022-12-18T05:06:08.927Z,23.30
2022-12-18T05:08:37.773Z,22.10
2022-12-18T05:11:08.365Z,23.27
2022-12-18T05:13:39.184Z,21.13
2022-12-18T05:16:09.375Z,21.27
2022-12-18T05:18:40.248Z,20.73
2022-12-18T05:21:08.885Z,20.83
2022-12-18T05:23:38.107Z,19.57
2022-12-18T05:26:09.004Z,20.83
2022-12-18T05:28:38.860Z,19.13
2022-12-18T05:31:07.906Z,20.17
2022-12-18T05:33:39.391Z,19.63
2022-12-18T05:36:10.380Z,20.47
2022-12-18T05:38:41.417Z,20.00
2022-12-18T05:41:11.077Z,19.47
2022-12-18T05:43:41.874Z,19.57
2022-12-18T05:46:14.413Z,18.13
2022-12-18T05:48:45.447Z,18.00
2022-12-18T05:51:18.752Z,18.97
2022-12-18T05:53:47.589Z,17.80
2022-12-18T05:56:17.742Z,18.27
2022-12-18T05:58:46.463Z,18.13
2022-12-18T06:01:18.223Z,18.00
2022-12-18T06:03:48.725Z,19.43
2022-12-18T06:06:18.807Z,18.83
2022-12-18T06:08:48.193Z,18.37
2022-12-18T06:11:20.631Z,18.30
2022-12-18T06:13:56.340Z,18.93
2022-12-18T06:16:27.613Z,19.80
2022-12-18T06:18:59.051Z,19.50
2022-12-18T06:21:29.095Z,18.27
2022-12-18T06:23:57.971Z,18.40
2022-12-18T06:26:28.531Z,19.00
2022-12-18T06:28:57.957Z,19.57
2022-12-18T06:31:27.733Z,18.30
2022-12-18T06:33:58.064Z,18.53
2022-12-18T06:36:26.719Z,18.07
2022-12-18T06:38:55.478Z,19.00
2022-12-18T06:41:24.810Z,19.43
2022-12-18T06:43:58.120Z,19.30
2022-12-18T06:46:28.417Z,18.63
2022-12-18T06:48:58.550Z,20.00
2022-12-18T06:51:27.632Z,19.03
2022-12-18T06:53:56.318Z,19.10
2022-12-18T06:56:25.017Z,18.93
2022-12-18T06:58:53.845Z,19.07
2022-12-18T07:01:23.099Z,18.33
2022-12-18T07:03:55.819Z,18.80
2022-12-18T07:06:27.864Z,18.80
2022-12-18T07:08:57.027Z,19.33
2022-12-18T07:11:26.403Z,18.10
2022-12-18T07:13:56.031Z,17.83
2022-12-18T07:16:25.922Z,17.97
2022-12-18T07:18:56.260Z,17.17
2022-12-18T07:21:27.521Z,18.03
2022-12-18T07:23:56.241Z,18.60
2022-12-18T07:26:24.975Z,18.03
2022-12-18T07:28:56.983Z,18.17
2022-12-18T07:31:26.214Z,17.33
2022-12-18T07:33:54.957Z,18.37
2022-12-18T07:36:23.715Z,17.40
2022-12-18T07:38:54.390Z,17.27
2022-12-18T07:41:23.475Z,17.80
2022-12-18T07:43:52.310Z,18.17
2022-12-18T07:46:21.072Z,18.60
2022-12-18T07:48:50.498Z,17.70
2022-12-18T07:51:20.745Z,18.30
2022-12-18T07:53:52.505Z,18.50
2022-12-18T07:56:28.116Z,18.23
2022-12-18T07:58:58.165Z,18.40
2022-12-18T08:01:27.162Z,18.20
2022-12-18T08:03:56.079Z,18.40
2022-12-18T08:06:25.094Z,20.37
2022-12-18T08:08:55.192Z,17.70
2022-12-18T08:11:28.069Z,17.83
2022-12-18T08:13:57.112Z,18.67
2022-12-18T08:16:26.310Z,19.30
2022-12-18T08:18:56.119Z,18.70
2022-12-18T08:21:27.386Z,19.07
2022-12-18T08:23:57.679Z,18.40
2022-12-18T08:26:30.404Z,19.33
2022-12-18T08:29:01.108Z,18.30
2022-12-18T08:31:31.274Z,19.27
2022-12-18T08:34:00.197Z,18.67
2022-12-18T08:36:28.836Z,18.70
2022-12-18T08:38:58.534Z,18.83
2022-12-18T08:41:29.296Z,18.53
2022-12-18T08:44:15.146Z,19.30
2022-12-18T08:46:45.806Z,18.80
2022-12-18T08:49:15.067Z,17.93
2022-12-18T08:51:43.778Z,18.90
2022-12-18T08:54:14.396Z,19.43
2022-12-18T08:56:44.818Z,18.03
2022-12-18T08:59:19.325Z,18.20
2022-12-18T09:01:49.912Z,18.83
2022-12-18T09:04:18.990Z,17.47
2022-12-18T09:06:48.004Z,17.10
2022-12-18T09:09:16.697Z,18.07
2022-12-18T09:11:46.816Z,18.30
2022-12-18T09:14:15.448Z,17.50
2022-12-18T09:16:44.204Z,17.47
2022-12-18T09:19:12.988Z,17.97
2022-12-18T09:21:47.490Z,18.33
2022-12-18T09:24:17.409Z,19.30
2022-12-18T09:26:47.857Z,18.63
2022-12-18T09:29:17.714Z,16.00
2022-12-18T09:31:48.040Z,16.27
2022-12-18T09:34:16.775Z,16.90
2022-12-18T09:36:45.734Z,17.20
2022-12-18T09:39:15.930Z,16.60
2022-12-18T09:41:51.106Z,16.47
2022-12-18T09:44:28.237Z,15.63
2022-12-18T09:47:10.671Z,16.30
2022-12-18T09:49:44.194Z,16.63
2022-12-18T09:52:18.478Z,16.20
2022-12-18T09:54:50.465Z,15.83
2022-12-18T09:57:24.089Z,15.20
2022-12-18T09:59:57.413Z,14.97
2022-12-18T10:02:27.999Z,15.00
2022-12-18T10:05:06.456Z,15.20
2022-12-18T10:07:49.365Z,14.67
2022-12-18T10:10:28.239Z,14.00
2022-12-18T10:13:09.652Z,14.50
2022-12-18T10:15:47.553Z,15.20
2022-12-18T10:18:26.793Z,15.20
2022-12-18T10:20:59.381Z,15.17
2022-12-18T10:23:33.342Z,15.07
2022-12-18T10:26:04.838Z,15.07
2022-12-18T10:28:38.571Z,14.83
2022-12-18T10:31:08.895Z,14.73
2022-12-18T10:33:37.479Z,15.00
2022-12-18T10:36:07.383Z,15.00
2022-12-18T10:38:36.555Z,14.87
2022-12-18T10:41:06.353Z,14.90
2022-12-18T10:43:38.807Z,15.47
2022-12-18T10:46:17.032Z,14.20
2022-12-18T10:48:55.170Z,15.00
2022-12-18T10:51:27.132Z,15.53
2022-12-18T10:54:03.021Z,14.27
2022-12-18T10:56:35.662Z,15.17
2022-12-18T10:59:08.095Z,15.07
2022-12-18T11:01:49.974Z,14.63
2022-12-18T11:04:22.061Z,15.10
2022-12-18T11:06:57.967Z,15.27
2022-12-18T11:09:28.484Z,14.70
2022-12-18T11:12:00.330Z,14.50
2022-12-18T11:14:33.492Z,13.43
2022-12-18T11:17:24.923Z,13.90
2022-12-18T11:19:56.819Z,14.27
2022-12-18T11:22:28.921Z,13.30
2022-12-18T11:27:51.712Z,13.30
2022-12-18T11:30:26.542Z,13.20
2022-12-18T11:32:59.168Z,13.30
2022-12-18T11:35:37.062Z,13.20
2022-12-18T11:38:14.834Z,12.93
2022-12-18T11:40:47.100Z,13.80
2022-12-18T11:43:20.224Z,13.60
2022-12-18T11:45:55.463Z,13.97
2022-12-18T11:48:28.121Z,13.40
2022-12-18T11:50:59.138Z,13.10
2022-12-18T11:53:29.164Z,13.23
2022-12-18T11:56:27.297Z,13.43
2022-12-18T11:59:09.263Z,12.90
2022-12-18T12:01:48.582Z,13.77
2022-12-18T12:04:38.244Z,13.27
2022-12-18T12:07:20.083Z,13.17
2022-12-18T12:09:56.057Z,13.23
2022-12-18T12:12:48.902Z,12.63
2022-12-18T12:15:28.357Z,13.10
2022-12-18T12:18:11.514Z,13.23
2022-12-18T12:20:50.188Z,13.43
2022-12-18T12:23:39.543Z,13.17
2022-12-18T12:26:12.286Z,13.77
2022-12-18T12:28:58.607Z,12.87
2022-12-18T12:31:44.580Z,12.93
2022-12-18T12:34:20.465Z,12.90
2022-12-18T12:37:03.702Z,12.90
2022-12-18T12:39:36.721Z,13.57
2022-12-18T12:42:25.758Z,12.97
2022-12-18T12:44:58.044Z,12.95
2022-12-18T12:47:32.246Z,13.60
2022-12-18T12:50:08.055Z,14.23
2022-12-18T12:52:41.441Z,13.70
2022-12-18T12:55:18.336Z,13.73
2022-12-18T12:57:56.192Z,13.33
2022-12-18T13:00:26.842Z,13.90
2022-12-18T13:03:04.285Z,13.67
2022-12-18T13:05:42.827Z,13.20
2022-12-18T13:08:13.058Z,12.73
2022-12-18T13:10:44.327Z,13.77
2022-12-18T13:13:13.515Z,13.53
2022-12-18T13:15:47.258Z,13.17
2022-12-18T13:18:21.895Z,13.40
2022-12-18T13:21:04.403Z,13.03
2022-12-18T13:23:37.574Z,13.53
2022-12-18T13:26:33.291Z,12.40
2022-12-18T13:29:05.328Z,12.60
2022-12-18T13:32:10.033Z,13.47
2022-12-18T13:34:39.009Z,12.67
2022-12-18T13:37:42.055Z,11.90
2022-12-18T13:40:56.810Z,12.30
2022-12-18T13:43:31.226Z,13.10
2022-12-18T13:46:21.360Z,12.37
2022-12-18T13:48:57.317Z,11.67
2022-12-18T13:51:27.438Z,13.10
2022-12-18T13:54:02.048Z,12.90
2022-12-18T13:56:33.482Z,12.67
2022-12-18T13:59:27.398Z,12.23
2022-12-18T14:01:58.329Z,12.23
2022-12-18T14:04:29.993Z,12.20
2022-12-18T14:07:03.874Z,12.97
2022-12-18T14:09:40.546Z,12.63
2022-12-18T14:12:34.416Z,12.30
2022-12-18T14:15:03.235Z,12.30
2022-12-18T14:17:33.742Z,12.57
2022-12-18T14:20:03.535Z,12.37
2022-12-18T14:22:33.391Z,11.90
2022-12-18T14:25:17.995Z,12.40
2022-12-18T14:27:49.060Z,12.67
2022-12-18T14:30:32.133Z,12.77
2022-12-18T14:33:32.011Z,12.67
2022-12-18T14:36:02.316Z,12.30
2022-12-18T14:38:33.582Z,12.13
2022-12-18T14:41:07.022Z,12.53
2022-12-18T14:43:37.474Z,12.53
2022-12-18T14:46:07.808Z,12.80
2022-12-18T14:48:39.898Z,12.60
2022-12-18T14:51:17.899Z,13.53
2022-12-18T14:53:54.355Z,13.37
2022-12-18T14:56:27.262Z,14.33
2022-12-18T14:59:27.471Z,15.17
2022-12-18T15:02:04.230Z,14.73
2022-12-18T15:04:36.840Z,13.67
2022-12-18T15:07:17.224Z,13.43
2022-12-18T15:10:04.799Z,14.53
2022-12-18T15:12:38.372Z,14.17
2022-12-18T15:15:28.128Z,14.13
2022-12-18T15:18:00.047Z,14.83
2022-12-18T15:20:28.840Z,15.60
2022-12-18T15:22:57.350Z,16.47
2022-12-18T15:25:33.102Z,15.20
2022-12-18T15:28:03.208Z,15.97
2022-12-18T15:30:33.226Z,13.97
2022-12-18T15:33:25.916Z,14.60
2022-12-18T15:35:59.198Z,14.87
2022-12-18T15:38:27.852Z,15.83
2022-12-18T15:40:57.171Z,14.40
2022-12-18T15:43:37.384Z,15.10
2022-12-18T15:46:08.595Z,14.40
2022-12-18T15:48:42.352Z,14.97
2022-12-18T15:51:17.124Z,14.67
2022-12-18T15:53:46.119Z,14.90
2022-12-18T15:56:33.138Z,14.97
2022-12-18T15:59:03.901Z,14.40
2022-12-18T16:02:03.210Z,15.27
2022-12-18T16:04:32.523Z,14.03
2022-12-18T16:07:19.305Z,14.40
2022-12-18T16:09:50.808Z,15.23
2022-12-18T16:12:22.954Z,15.23
2022-12-18T16:14:53.067Z,14.50
2022-12-18T16:17:22.139Z,14.43
2022-12-18T16:19:50.753Z,14.57
2022-12-18T16:22:23.403Z,15.40
2022-12-18T16:24:52.483Z,14.80
2022-12-18T16:27:21.766Z,14.90
2022-12-18T16:29:50.734Z,14.97
2022-12-18T16:32:23.436Z,13.70
2022-12-18T16:34:52.217Z,14.13
2022-12-18T16:37:21.024Z,14.47
2022-12-18T16:39:49.699Z,14.67
2022-12-18T16:42:23.826Z,14.10
2022-12-18T16:44:52.686Z,14.53
2022-12-18T16:47:22.711Z,15.03
2022-12-18T16:49:53.351Z,14.60
2022-12-18T16:52:22.238Z,14.50
2022-12-18T16:54:50.819Z,14.07
2022-12-18T16:57:21.537Z,15.30
2022-12-18T16:59:53.881Z,14.87
2022-12-18T17:02:25.686Z,14.53
2022-12-18T17:04:56.524Z,14.63
2022-12-18T17:07:25.826Z,15.13
2022-12-18T17:09:54.705Z,15.77
2022-12-18T17:12:23.686Z,15.57
2022-12-18T17:14:52.394Z,15.20
2022-12-18T17:17:23.571Z,14.83
2022-12-18T17:19:54.390Z,15.33
2022-12-18T17:22:24.466Z,15.53
2022-12-18T17:24:53.264Z,16.00
2022-12-18T17:27:21.890Z,16.37
2022-12-18T17:29:50.593Z,16.03
2022-12-18T17:32:19.359Z,16.50
2022-12-18T17:34:48.139Z,15.87
2022-12-18T17:37:18.195Z,16.70
2022-12-18T17:39:46.917Z,16.03
2022-12-18T17:42:15.999Z,16.33
2022-12-18T17:44:45.029Z,16.17
2022-12-18T17:47:14.172Z,15.77
2022-12-18T17:49:42.842Z,15.67
2022-12-18T17:52:11.931Z,16.57
2022-12-18T17:54:43.971Z,16.77
2022-12-18T17:57:12.939Z,16.67
2022-12-18T17:59:41.669Z,17.03
2022-12-18T18:02:12.680Z,16.73
2022-12-18T18:04:41.587Z,17.17
2022-12-18T18:07:10.253Z,15.87
2022-12-18T18:09:41.841Z,17.50
2022-12-18T18:12:27.606Z,17.07
2022-12-18T18:14:56.286Z,16.97
2022-12-18T18:17:24.817Z,16.47
2022-12-18T18:19:53.413Z,17.73
2022-12-18T18:22:22.045Z,17.93
2022-12-18T18:24:54.668Z,15.53
2022-12-18T18:27:23.500Z,16.73
2022-12-18T18:29:52.324Z,16.30
2022-12-18T18:32:26.254Z,16.10
2022-12-18T18:34:55.103Z,16.83
2022-12-18T18:37:24.050Z,15.67
2022-12-18T18:39:54.200Z,15.47
2022-12-18T18:42:22.903Z,15.87
2022-12-18T18:44:51.529Z,16.60
2022-12-18T18:47:22.213Z,16.90
2022-12-18T18:49:50.876Z,15.97
2022-12-18T18:52:19.468Z,16.73
2022-12-18T18:55:11.558Z,16.90
2022-12-18T18:57:39.859Z,17.00
2022-12-18T19:00:10.220Z,17.73
2022-12-18T19:02:39.162Z,16.20
2022-12-18T19:05:08.678Z,16.20
2022-12-18T19:07:37.648Z,16.00
2022-12-18T19:10:07.384Z,17.87
2022-12-18T19:12:53.807Z,17.30
2022-12-18T19:15:24.967Z,17.80
2022-12-18T19:17:54.173Z,17.67
2022-12-18T19:20:22.710Z,18.37
2022-12-18T19:22:55.073Z,18.03
2022-12-18T19:25:39.974Z,18.47
2022-12-18T19:28:21.155Z,18.20
2022-12-18T19:30:58.960Z,18.37
2022-12-18T19:33:45.182Z,18.10
2022-12-18T19:36:21.663Z,17.80
2022-12-18T19:38:50.732Z,17.60
2022-12-18T19:41:20.580Z,18.63
2022-12-18T19:43:49.519Z,17.97
2022-12-18T19:46:22.563Z,17.60
2022-12-18T19:48:51.788Z,18.27
2022-12-18T19:51:22.556Z,17.97
2022-12-18T19:53:57.801Z,18.13
2022-12-18T19:56:30.631Z,18.37
2022-12-18T19:59:00.096Z,18.17
2022-12-18T20:01:31.944Z,17.13
2022-12-18T20:04:01.226Z,17.30
2022-12-18T20:06:34.022Z,18.03
2022-12-18T20:09:07.378Z,17.00
2022-12-18T20:11:41.421Z,17.20
2022-12-18T20:14:10.291Z,16.90
2022-12-18T20:16:40.441Z,17.40
2022-12-18T20:19:10.245Z,17.17
2022-12-18T20:21:39.497Z,16.93
2022-12-18T20:24:09.164Z,16.80
2022-12-18T20:26:41.972Z,16.13
2022-12-18T20:29:10.949Z,17.40
2022-12-18T20:31:41.660Z,18.00
2022-12-18T20:34:10.358Z,17.23
2022-12-18T20:36:39.837Z,17.27
2022-12-18T20:39:11.007Z,16.27
2022-12-18T20:41:41.275Z,16.00
2022-12-18T20:44:23.726Z,15.73
2022-12-18T20:46:56.609Z,16.60
2022-12-18T20:49:27.483Z,15.27
2022-12-18T20:51:58.534Z,14.77
2022-12-18T20:54:28.659Z,15.47
2022-12-18T20:56:58.101Z,15.70
2022-12-18T20:59:26.989Z,15.00
2022-12-18T21:01:57.481Z,15.07
2022-12-18T21:04:26.564Z,15.80
2022-12-18T21:07:01.909Z,15.93
2022-12-18T21:09:36.937Z,15.43
2022-12-18T21:12:25.856Z,15.93
2022-12-18T21:14:54.640Z,16.17
2022-12-18T21:17:24.638Z,15.37
2022-12-18T21:19:55.509Z,15.87
2022-12-18T21:22:24.310Z,16.53
2022-12-18T21:24:52.918Z,17.27
2022-12-18T21:27:21.999Z,16.20
2022-12-18T21:29:50.904Z,15.97
2022-12-18T21:32:21.167Z,15.70
2022-12-18T21:34:54.306Z,16.50
2022-12-18T21:37:22.770Z,15.33
2022-12-18T21:39:51.300Z,16.57
2022-12-18T21:42:43.177Z,16.57
2022-12-18T21:45:13.186Z,16.97
2022-12-18T21:47:41.776Z,16.43
2022-12-18T21:50:11.985Z,17.20
2022-12-18T21:52:40.507Z,15.67
2022-12-18T21:55:10.331Z,16.50
2022-12-18T21:57:39.903Z,15.73
2022-12-18T22:00:19.120Z,16.90
2022-12-18T22:03:13.401Z,15.93
2022-12-18T22:05:39.297Z,17.63
2022-12-18T22:08:07.959Z,17.30
2022-12-18T22:10:37.081Z,16.60
2022-12-18T22:13:05.742Z,16.60
2022-12-18T22:15:34.666Z,16.00
2022-12-18T22:18:03.341Z,16.50
2022-12-18T22:20:31.976Z,15.87
2022-12-18T22:23:05.743Z,16.63
2022-12-18T22:25:35.218Z,15.57
2022-12-18T22:28:23.396Z,15.87
2022-12-18T22:30:56.361Z,16.43
2022-12-18T22:33:28.857Z,16.67
2022-12-18T22:35:57.434Z,16.83
2022-12-18T22:38:27.917Z,16.77
2022-12-18T22:40:56.724Z,16.97
2022-12-18T22:43:25.625Z,16.70
2022-12-18T22:45:54.253Z,16.23
2022-12-18T22:48:23.145Z,17.07
2022-12-18T22:50:53.065Z,16.77
2022-12-18T22:53:27.816Z,15.83
2022-12-18T22:56:02.365Z,16.57
2022-12-18T22:58:30.990Z,17.13
2022-12-18T23:00:59.546Z,17.30
2022-12-18T23:03:28.424Z,16.83
2022-12-18T23:06:05.320Z,16.03
2022-12-18T23:08:36.303Z,17.07
2022-12-18T23:11:06.239Z,17.57
2022-12-18T23:13:41.457Z,17.30
2022-12-18T23:16:15.528Z,17.77
2022-12-18T23:18:44.954Z,17.37
2022-12-18T23:21:16.163Z,17.67
2022-12-18T23:23:48.182Z,17.93
2022-12-18T23:26:20.032Z,18.03
2022-12-18T23:28:50.385Z,17.40
2022-12-18T23:31:23.658Z,18.77
2022-12-18T23:33:53.469Z,17.93
2022-12-18T23:36:25.711Z,17.87
2022-12-18T23:38:57.708Z,18.60
2022-12-18T23:41:28.271Z,18.30
2022-12-18T23:43:57.775Z,17.27
2022-12-18T23:46:28.882Z,18.47
2022-12-18T23:49:06.609Z,19.00
2022-12-18T23:51:35.244Z,18.27
2022-12-18T23:54:06.515Z,18.40
2022-12-18T23:56:35.936Z,18.07
2022-12-18T23:59:04.594Z,17.37
